sensor_id;sensor_type;location;lat;lon;timestamp;P1;durP1;ratioP1;P2;durP2;ratioP2
8183;SDS011;4133;48.752;9.088;2022-08-19T00:01:16;13.35;;;10.27;;
8183;SDS011;4133;48.752;9.088;2022-08-19T00:03:43;11.10;;;9.80;;
8183;SDS011;4133;48.752;9.088;2022-08-19T00:06:09;10.63;;;9.52;;
8183;SDS011;4133;48.752;9.088;2022-08-19T00:08:35;11.10;;;9.93;;
8183;SDS011;4133;48.752;9.088;2022-08-19T00:11:01;11.35;;;9.20;;
8183;SDS011;4133;48.752;9.088;2022-08-19T00:13:27;12.10;;;10.20;;
8183;SDS011;4133;48.752;9.088;2022-08-19T00:15:54;11.32;;;10.05;;
8183;SDS011;4133;48.752;9.088;2022-08-19T00:18:20;12.45;;;9.75;;
8183;SDS011;4133;48.752;9.088;2022-08-19T00:20:46;12.18;;;9.95;;
8183;SDS011;4133;48.752;9.088;2022-08-19T00:23:12;10.57;;;9.48;;
8183;SDS011;4133;48.752;9.088;2022-08-19T00:25:38;11.73;;;9.93;;
8183;SDS011;4133;48.752;9.088;2022-08-19T00:28:04;13.75;;;9.98;;
8183;SDS011;4133;48.752;9.088;2022-08-19T00:30:30;12.27;;;9.90;;
8183;SDS011;4133;48.752;9.088;2022-08-19T00:32:56;10.70;;;9.60;;
8183;SDS011;4133;48.752;9.088;2022-08-19T00:35:22;12.10;;;9.98;;
8183;SDS011;4133;48.752;9.088;2022-08-19T00:37:49;11.38;;;10.18;;
8183;SDS011;4133;48.752;9.088;2022-08-19T00:40:15;12.77;;;9.93;;
8183;SDS011;4133;48.752;9.088;2022-08-19T00:42:43;12.20;;;9.98;;
8183;SDS011;4133;48.752;9.088;2022-08-19T00:45:20;13.75;;;10.82;;
8183;SDS011;4133;48.752;9.088;2022-08-19T00:47:46;12.85;;;11.00;;
8183;SDS011;4133;48.752;9.088;2022-08-19T00:50:13;13.25;;;10.60;;
8183;SDS011;4133;48.752;9.088;2022-08-19T00:52:42;12.52;;;10.85;;
8183;SDS011;4133;48.752;9.088;2022-08-19T00:55:10;12.60;;;10.52;;
8183;SDS011;4133;48.752;9.088;2022-08-19T00:57:39;14.05;;;11.27;;
8183;SDS011;4133;48.752;9.088;2022-08-19T01:00:07;14.45;;;10.48;;
8183;SDS011;4133;48.752;9.088;2022-08-19T01:02:36;13.27;;;10.43;;
8183;SDS011;4133;48.752;9.088;2022-08-19T01:05:03;12.15;;;10.50;;
8183;SDS011;4133;48.752;9.088;2022-08-19T01:07:30;11.68;;;10.48;;
8183;SDS011;4133;48.752;9.088;2022-08-19T01:09:56;14.20;;;11.07;;
8183;SDS011;4133;48.752;9.088;2022-08-19T01:12:22;13.68;;;9.90;;
8183;SDS011;4133;48.752;9.088;2022-08-19T01:14:49;13.82;;;10.70;;
8183;SDS011;4133;48.752;9.088;2022-08-19T01:17:15;12.18;;;10.65;;
8183;SDS011;4133;48.752;9.088;2022-08-19T01:19:41;13.60;;;10.63;;
8183;SDS011;4133;48.752;9.088;2022-08-19T01:22:12;14.80;;;11.40;;
8183;SDS011;4133;48.752;9.088;2022-08-19T01:24:39;12.02;;;10.55;;
8183;SDS011;4133;48.752;9.088;2022-08-19T01:27:06;13.02;;;11.20;;
8183;SDS011;4133;48.752;9.088;2022-08-19T01:29:32;11.75;;;10.48;;
8183;SDS011;4133;48.752;9.088;2022-08-19T01:32:00;13.30;;;10.80;;
8183;SDS011;4133;48.752;9.088;2022-08-19T01:34:26;13.85;;;10.88;;
8183;SDS011;4133;48.752;9.088;2022-08-19T01:36:52;14.68;;;11.07;;
8183;SDS011;4133;48.752;9.088;2022-08-19T01:39:20;13.07;;;10.75;;
8183;SDS011;4133;48.752;9.088;2022-08-19T01:41:47;12.27;;;10.65;;
8183;SDS011;4133;48.752;9.088;2022-08-19T01:44:13;12.55;;;11.25;;
8183;SDS011;4133;48.752;9.088;2022-08-19T01:46:39;14.77;;;11.02;;
8183;SDS011;4133;48.752;9.088;2022-08-19T01:49:05;13.48;;;11.55;;
8183;SDS011;4133;48.752;9.088;2022-08-19T01:51:32;13.02;;;11.52;;
8183;SDS011;4133;48.752;9.088;2022-08-19T01:53:58;14.18;;;11.35;;
8183;SDS011;4133;48.752;9.088;2022-08-19T01:56:24;16.77;;;11.38;;
8183;SDS011;4133;48.752;9.088;2022-08-19T01:58:52;13.50;;;10.75;;
8183;SDS011;4133;48.752;9.088;2022-08-19T02:01:19;12.98;;;10.45;;
8183;SDS011;4133;48.752;9.088;2022-08-19T02:03:45;13.52;;;11.02;;
8183;SDS011;4133;48.752;9.088;2022-08-19T02:06:11;13.52;;;11.85;;
8183;SDS011;4133;48.752;9.088;2022-08-19T02:08:39;13.38;;;11.52;;
8183;SDS011;4133;48.752;9.088;2022-08-19T02:11:05;14.27;;;11.75;;
8183;SDS011;4133;48.752;9.088;2022-08-19T02:13:32;15.55;;;12.82;;
8183;SDS011;4133;48.752;9.088;2022-08-19T02:15:58;13.52;;;12.02;;
8183;SDS011;4133;48.752;9.088;2022-08-19T02:18:24;14.48;;;12.18;;
8183;SDS011;4133;48.752;9.088;2022-08-19T02:20:51;13.32;;;11.43;;
8183;SDS011;4133;48.752;9.088;2022-08-19T02:23:17;15.32;;;12.70;;
8183;SDS011;4133;48.752;9.088;2022-08-19T02:25:44;14.10;;;12.38;;
8183;SDS011;4133;48.752;9.088;2022-08-19T02:28:11;17.67;;;12.95;;
8183;SDS011;4133;48.752;9.088;2022-08-19T02:30:37;16.17;;;12.43;;
8183;SDS011;4133;48.752;9.088;2022-08-19T02:33:04;15.63;;;12.45;;
8183;SDS011;4133;48.752;9.088;2022-08-19T02:35:30;15.20;;;13.05;;
8183;SDS011;4133;48.752;9.088;2022-08-19T02:37:56;16.20;;;12.80;;
8183;SDS011;4133;48.752;9.088;2022-08-19T02:40:40;15.52;;;12.77;;
8183;SDS011;4133;48.752;9.088;2022-08-19T02:43:07;14.88;;;12.98;;
8183;SDS011;4133;48.752;9.088;2022-08-19T02:45:34;18.35;;;13.48;;
8183;SDS011;4133;48.752;9.088;2022-08-19T02:48:01;14.63;;;12.27;;
8183;SDS011;4133;48.752;9.088;2022-08-19T02:50:27;18.08;;;12.65;;
8183;SDS011;4133;48.752;9.088;2022-08-19T02:52:53;15.05;;;13.02;;
8183;SDS011;4133;48.752;9.088;2022-08-19T02:55:20;18.88;;;14.30;;
8183;SDS011;4133;48.752;9.088;2022-08-19T02:57:46;18.15;;;13.57;;
8183;SDS011;4133;48.752;9.088;2022-08-19T03:00:13;17.20;;;13.90;;
8183;SDS011;4133;48.752;9.088;2022-08-19T03:02:39;17.85;;;14.35;;
8183;SDS011;4133;48.752;9.088;2022-08-19T03:05:07;16.98;;;14.05;;
8183;SDS011;4133;48.752;9.088;2022-08-19T03:07:34;18.38;;;15.13;;
8183;SDS011;4133;48.752;9.088;2022-08-19T03:10:00;17.27;;;13.43;;
8183;SDS011;4133;48.752;9.088;2022-08-19T03:12:26;19.55;;;14.45;;
8183;SDS011;4133;48.752;9.088;2022-08-19T03:14:52;18.73;;;14.80;;
8183;SDS011;4133;48.752;9.088;2022-08-19T03:17:19;16.98;;;13.80;;
8183;SDS011;4133;48.752;9.088;2022-08-19T03:19:45;18.35;;;15.07;;
8183;SDS011;4133;48.752;9.088;2022-08-19T03:22:11;19.77;;;15.40;;
8183;SDS011;4133;48.752;9.088;2022-08-19T03:24:37;20.25;;;14.40;;
8183;SDS011;4133;48.752;9.088;2022-08-19T03:27:03;20.25;;;14.98;;
8183;SDS011;4133;48.752;9.088;2022-08-19T03:29:30;17.55;;;14.15;;
8183;SDS011;4133;48.752;9.088;2022-08-19T03:31:57;18.02;;;14.80;;
8183;SDS011;4133;48.752;9.088;2022-08-19T03:34:24;17.38;;;14.77;;
8183;SDS011;4133;48.752;9.088;2022-08-19T03:36:54;18.33;;;14.98;;
8183;SDS011;4133;48.752;9.088;2022-08-19T03:39:20;16.52;;;14.05;;
8183;SDS011;4133;48.752;9.088;2022-08-19T03:41:47;18.13;;;14.68;;
8183;SDS011;4133;48.752;9.088;2022-08-19T03:44:18;18.63;;;14.68;;
8183;SDS011;4133;48.752;9.088;2022-08-19T03:46:46;18.92;;;14.68;;
8183;SDS011;4133;48.752;9.088;2022-08-19T03:49:13;17.45;;;14.50;;
8183;SDS011;4133;48.752;9.088;2022-08-19T03:51:40;19.52;;;15.00;;
8183;SDS011;4133;48.752;9.088;2022-08-19T03:54:07;18.50;;;15.73;;
8183;SDS011;4133;48.752;9.088;2022-08-19T03:56:34;20.73;;;14.40;;
8183;SDS011;4133;48.752;9.088;2022-08-19T03:59:01;19.33;;;15.07;;
8183;SDS011;4133;48.752;9.088;2022-08-19T04:01:27;17.27;;;14.32;;
8183;SDS011;4133;48.752;9.088;2022-08-19T04:03:54;19.17;;;15.05;;
8183;SDS011;4133;48.752;9.088;2022-08-19T04:06:22;16.95;;;14.52;;
8183;SDS011;4133;48.752;9.088;2022-08-19T04:08:49;17.90;;;14.90;;
8183;SDS011;4133;48.752;9.088;2022-08-19T04:11:17;17.33;;;14.98;;
8183;SDS011;4133;48.752;9.088;2022-08-19T04:13:46;21.02;;;16.20;;
8183;SDS011;4133;48.752;9.088;2022-08-19T04:16:12;21.85;;;16.10;;
8183;SDS011;4133;48.752;9.088;2022-08-19T04:18:39;19.23;;;16.25;;
8183;SDS011;4133;48.752;9.088;2022-08-19T04:21:05;21.50;;;16.58;;
8183;SDS011;4133;48.752;9.088;2022-08-19T04:23:32;18.95;;;15.73;;
8183;SDS011;4133;48.752;9.088;2022-08-19T04:25:58;18.83;;;16.00;;
8183;SDS011;4133;48.752;9.088;2022-08-19T04:28:24;20.95;;;16.92;;
8183;SDS011;4133;48.752;9.088;2022-08-19T04:30:52;19.83;;;15.98;;
8183;SDS011;4133;48.752;9.088;2022-08-19T04:33:22;21.60;;;16.92;;
8183;SDS011;4133;48.752;9.088;2022-08-19T04:35:49;19.88;;;16.08;;
8183;SDS011;4133;48.752;9.088;2022-08-19T04:38:16;21.25;;;15.93;;
8183;SDS011;4133;48.752;9.088;2022-08-19T04:40:43;19.33;;;16.10;;
8183;SDS011;4133;48.752;9.088;2022-08-19T04:43:28;19.38;;;15.93;;
8183;SDS011;4133;48.752;9.088;2022-08-19T04:45:54;22.65;;;17.02;;
8183;SDS011;4133;48.752;9.088;2022-08-19T04:48:20;21.55;;;16.23;;
8183;SDS011;4133;48.752;9.088;2022-08-19T04:50:51;19.58;;;16.27;;
8183;SDS011;4133;48.752;9.088;2022-08-19T04:53:21;19.95;;;16.77;;
8183;SDS011;4133;48.752;9.088;2022-08-19T04:55:47;20.13;;;16.48;;
8183;SDS011;4133;48.752;9.088;2022-08-19T04:58:13;21.10;;;16.45;;
8183;SDS011;4133;48.752;9.088;2022-08-19T05:00:40;21.38;;;16.40;;
8183;SDS011;4133;48.752;9.088;2022-08-19T05:03:06;20.52;;;16.83;;
8183;SDS011;4133;48.752;9.088;2022-08-19T05:05:33;22.55;;;17.63;;
8183;SDS011;4133;48.752;9.088;2022-08-19T05:07:59;21.45;;;17.08;;
8183;SDS011;4133;48.752;9.088;2022-08-19T05:10:25;21.63;;;17.55;;
8183;SDS011;4133;48.752;9.088;2022-08-19T05:12:51;20.98;;;16.85;;
8183;SDS011;4133;48.752;9.088;2022-08-19T05:15:17;20.45;;;16.45;;
8183;SDS011;4133;48.752;9.088;2022-08-19T05:17:44;20.70;;;16.63;;
8183;SDS011;4133;48.752;9.088;2022-08-19T05:20:30;19.98;;;16.90;;
8183;SDS011;4133;48.752;9.088;2022-08-19T05:23:14;20.95;;;17.20;;
8183;SDS011;4133;48.752;9.088;2022-08-19T05:25:40;21.50;;;16.63;;
8183;SDS011;4133;48.752;9.088;2022-08-19T05:28:06;22.17;;;17.42;;
8183;SDS011;4133;48.752;9.088;2022-08-19T05:30:32;23.10;;;18.08;;
8183;SDS011;4133;48.752;9.088;2022-08-19T05:32:59;20.70;;;17.75;;
8183;SDS011;4133;48.752;9.088;2022-08-19T05:35:25;23.42;;;18.13;;
8183;SDS011;4133;48.752;9.088;2022-08-19T05:37:51;21.42;;;16.92;;
8183;SDS011;4133;48.752;9.088;2022-08-19T05:40:19;23.00;;;16.75;;
8183;SDS011;4133;48.752;9.088;2022-08-19T05:42:45;21.83;;;17.33;;
8183;SDS011;4133;48.752;9.088;2022-08-19T05:45:11;19.30;;;16.70;;
8183;SDS011;4133;48.752;9.088;2022-08-19T05:47:37;21.48;;;17.52;;
8183;SDS011;4133;48.752;9.088;2022-08-19T05:50:03;19.83;;;16.75;;
8183;SDS011;4133;48.752;9.088;2022-08-19T05:52:29;21.45;;;16.48;;
8183;SDS011;4133;48.752;9.088;2022-08-19T05:54:55;20.98;;;16.73;;
8183;SDS011;4133;48.752;9.088;2022-08-19T05:57:22;22.38;;;17.92;;
8183;SDS011;4133;48.752;9.088;2022-08-19T05:59:48;22.75;;;18.13;;
8183;SDS011;4133;48.752;9.088;2022-08-19T06:02:16;23.15;;;17.30;;
8183;SDS011;4133;48.752;9.088;2022-08-19T06:04:42;22.33;;;17.58;;
8183;SDS011;4133;48.752;9.088;2022-08-19T06:07:08;22.92;;;18.02;;
8183;SDS011;4133;48.752;9.088;2022-08-19T06:09:34;19.30;;;17.08;;
8183;SDS011;4133;48.752;9.088;2022-08-19T06:12:02;21.42;;;17.65;;
8183;SDS011;4133;48.752;9.088;2022-08-19T06:14:31;22.13;;;16.25;;
8183;SDS011;4133;48.752;9.088;2022-08-19T06:16:57;23.95;;;17.48;;
8183;SDS011;4133;48.752;9.088;2022-08-19T06:19:25;20.08;;;17.05;;
8183;SDS011;4133;48.752;9.088;2022-08-19T06:22:02;21.33;;;16.77;;
8183;SDS011;4133;48.752;9.088;2022-08-19T06:24:29;22.20;;;18.45;;
8183;SDS011;4133;48.752;9.088;2022-08-19T06:26:57;21.27;;;17.08;;
8183;SDS011;4133;48.752;9.088;2022-08-19T06:29:24;21.08;;;17.20;;
8183;SDS011;4133;48.752;9.088;2022-08-19T06:31:52;21.27;;;17.40;;
8183;SDS011;4133;48.752;9.088;2022-08-19T06:34:18;21.20;;;17.33;;
8183;SDS011;4133;48.752;9.088;2022-08-19T06:36:46;19.85;;;16.35;;
8183;SDS011;4133;48.752;9.088;2022-08-19T06:39:14;19.83;;;16.17;;
8183;SDS011;4133;48.752;9.088;2022-08-19T06:41:41;19.85;;;17.13;;
8183;SDS011;4133;48.752;9.088;2022-08-19T06:44:11;19.77;;;16.25;;
8183;SDS011;4133;48.752;9.088;2022-08-19T06:46:38;19.55;;;16.30;;
8183;SDS011;4133;48.752;9.088;2022-08-19T06:49:04;19.55;;;16.13;;
8183;SDS011;4133;48.752;9.088;2022-08-19T06:51:34;22.05;;;17.30;;
8183;SDS011;4133;48.752;9.088;2022-08-19T06:54:00;22.20;;;16.58;;
8183;SDS011;4133;48.752;9.088;2022-08-19T06:56:28;18.05;;;15.60;;
8183;SDS011;4133;48.752;9.088;2022-08-19T06:59:01;18.42;;;15.75;;
8183;SDS011;4133;48.752;9.088;2022-08-19T07:01:28;21.30;;;16.98;;
8183;SDS011;4133;48.752;9.088;2022-08-19T07:03:54;19.35;;;16.55;;
8183;SDS011;4133;48.752;9.088;2022-08-19T07:06:21;20.05;;;15.77;;
8183;SDS011;4133;48.752;9.088;2022-08-19T07:08:47;18.33;;;15.80;;
8183;SDS011;4133;48.752;9.088;2022-08-19T07:11:14;18.40;;;15.63;;
8183;SDS011;4133;48.752;9.088;2022-08-19T07:13:42;19.33;;;16.00;;
8183;SDS011;4133;48.752;9.088;2022-08-19T07:16:11;18.52;;;15.07;;
8183;SDS011;4133;48.752;9.088;2022-08-19T07:18:38;17.52;;;15.43;;
8183;SDS011;4133;48.752;9.088;2022-08-19T07:21:10;20.17;;;16.17;;
8183;SDS011;4133;48.752;9.088;2022-08-19T07:23:37;18.60;;;15.80;;
8183;SDS011;4133;48.752;9.088;2022-08-19T07:26:07;17.98;;;15.23;;
8183;SDS011;4133;48.752;9.088;2022-08-19T07:28:34;18.88;;;14.95;;
8183;SDS011;4133;48.752;9.088;2022-08-19T07:31:03;21.30;;;15.45;;
8183;SDS011;4133;48.752;9.088;2022-08-19T07:33:29;17.38;;;15.05;;
8183;SDS011;4133;48.752;9.088;2022-08-19T07:35:57;15.93;;;14.10;;
8183;SDS011;4133;48.752;9.088;2022-08-19T07:38:23;19.88;;;15.88;;
8183;SDS011;4133;48.752;9.088;2022-08-19T07:40:49;18.17;;;15.82;;
8183;SDS011;4133;48.752;9.088;2022-08-19T07:43:16;19.10;;;14.77;;
8183;SDS011;4133;48.752;9.088;2022-08-19T07:45:45;17.38;;;15.27;;
8183;SDS011;4133;48.752;9.088;2022-08-19T07:48:11;21.23;;;16.25;;
8183;SDS011;4133;48.752;9.088;2022-08-19T07:50:38;17.58;;;15.18;;
8183;SDS011;4133;48.752;9.088;2022-08-19T07:53:04;16.88;;;14.50;;
8183;SDS011;4133;48.752;9.088;2022-08-19T07:55:30;18.83;;;15.38;;
8183;SDS011;4133;48.752;9.088;2022-08-19T07:57:56;18.45;;;14.82;;
8183;SDS011;4133;48.752;9.088;2022-08-19T08:00:22;16.15;;;13.55;;
8183;SDS011;4133;48.752;9.088;2022-08-19T08:02:48;17.38;;;14.70;;
8183;SDS011;4133;48.752;9.088;2022-08-19T08:05:14;16.65;;;14.75;;
8183;SDS011;4133;48.752;9.088;2022-08-19T08:07:59;17.75;;;15.00;;
8183;SDS011;4133;48.752;9.088;2022-08-19T08:10:46;17.95;;;14.48;;
8183;SDS011;4133;48.752;9.088;2022-08-19T08:13:12;15.75;;;13.02;;
8183;SDS011;4133;48.752;9.088;2022-08-19T08:15:39;16.10;;;13.73;;
8183;SDS011;4133;48.752;9.088;2022-08-19T08:18:08;17.20;;;13.98;;
8183;SDS011;4133;48.752;9.088;2022-08-19T08:20:34;18.52;;;14.05;;
8183;SDS011;4133;48.752;9.088;2022-08-19T08:26:07;15.27;;;13.40;;
8183;SDS011;4133;48.752;9.088;2022-08-19T08:28:33;15.55;;;13.80;;
8183;SDS011;4133;48.752;9.088;2022-08-19T08:30:59;17.10;;;13.73;;
8183;SDS011;4133;48.752;9.088;2022-08-19T08:33:26;17.42;;;14.13;;
8183;SDS011;4133;48.752;9.088;2022-08-19T08:35:52;18.63;;;14.65;;
8183;SDS011;4133;48.752;9.088;2022-08-19T08:38:19;18.20;;;13.57;;
8183;SDS011;4133;48.752;9.088;2022-08-19T08:40:46;18.15;;;13.85;;
8183;SDS011;4133;48.752;9.088;2022-08-19T08:43:24;17.10;;;13.25;;
8183;SDS011;4133;48.752;9.088;2022-08-19T08:45:55;17.20;;;14.32;;
8183;SDS011;4133;48.752;9.088;2022-08-19T08:48:24;19.20;;;13.60;;
8183;SDS011;4133;48.752;9.088;2022-08-19T08:50:51;17.73;;;13.90;;
8183;SDS011;4133;48.752;9.088;2022-08-19T08:53:18;19.27;;;13.65;;
8183;SDS011;4133;48.752;9.088;2022-08-19T08:55:45;16.02;;;12.52;;
8183;SDS011;4133;48.752;9.088;2022-08-19T08:58:58;16.50;;;13.38;;
8183;SDS011;4133;48.752;9.088;2022-08-19T09:00:58;14.65;;;12.98;;
8183;SDS011;4133;48.752;9.088;2022-08-19T09:03:25;14.80;;;12.75;;
8183;SDS011;4133;48.752;9.088;2022-08-19T09:09:04;15.73;;;12.77;;
8183;SDS011;4133;48.752;9.088;2022-08-19T09:11:06;14.68;;;12.77;;
8183;SDS011;4133;48.752;9.088;2022-08-19T09:13:36;17.63;;;13.98;;
8183;SDS011;4133;48.752;9.088;2022-08-19T09:16:07;15.15;;;12.95;;
8183;SDS011;4133;48.752;9.088;2022-08-19T09:18:38;14.27;;;12.77;;
8183;SDS011;4133;48.752;9.088;2022-08-19T09:21:05;16.30;;;12.80;;
8183;SDS011;4133;48.752;9.088;2022-08-19T09:23:35;14.70;;;11.93;;
8183;SDS011;4133;48.752;9.088;2022-08-19T09:26:05;15.55;;;13.07;;
8183;SDS011;4133;48.752;9.088;2022-08-19T09:28:32;15.20;;;12.85;;
8183;SDS011;4133;48.752;9.088;2022-08-19T09:30:58;15.38;;;12.50;;
8183;SDS011;4133;48.752;9.088;2022-08-19T09:33:24;15.65;;;13.30;;
8183;SDS011;4133;48.752;9.088;2022-08-19T09:35:50;14.07;;;12.63;;
8183;SDS011;4133;48.752;9.088;2022-08-19T09:38:16;16.88;;;12.43;;
8183;SDS011;4133;48.752;9.088;2022-08-19T09:40:42;15.00;;;12.43;;
8183;SDS011;4133;48.752;9.088;2022-08-19T09:43:07;18.20;;;12.07;;
8183;SDS011;4133;48.752;9.088;2022-08-19T09:45:35;19.60;;;11.98;;
8183;SDS011;4133;48.752;9.088;2022-08-19T09:48:01;14.73;;;12.10;;
8183;SDS011;4133;48.752;9.088;2022-08-19T09:50:27;14.57;;;12.77;;
8183;SDS011;4133;48.752;9.088;2022-08-19T09:52:54;15.55;;;11.98;;
8183;SDS011;4133;48.752;9.088;2022-08-19T09:55:22;14.68;;;12.02;;
8183;SDS011;4133;48.752;9.088;2022-08-19T09:57:48;13.48;;;11.98;;
8183;SDS011;4133;48.752;9.088;2022-08-19T10:00:14;16.67;;;12.00;;
8183;SDS011;4133;48.752;9.088;2022-08-19T10:02:40;13.05;;;11.60;;
8183;SDS011;4133;48.752;9.088;2022-08-19T10:05:06;13.23;;;10.88;;
8183;SDS011;4133;48.752;9.088;2022-08-19T10:07:51;11.77;;;10.57;;
8183;SDS011;4133;48.752;9.088;2022-08-19T10:10:17;15.48;;;10.73;;
8183;SDS011;4133;48.752;9.088;2022-08-19T10:12:43;11.88;;;9.80;;
8183;SDS011;4133;48.752;9.088;2022-08-19T10:15:12;11.88;;;10.07;;
8183;SDS011;4133;48.752;9.088;2022-08-19T10:17:38;13.98;;;10.80;;
8183;SDS011;4133;48.752;9.088;2022-08-19T10:20:04;15.55;;;11.10;;
8183;SDS011;4133;48.752;9.088;2022-08-19T10:22:34;11.13;;;9.50;;
8183;SDS011;4133;48.752;9.088;2022-08-19T10:25:02;11.25;;;9.82;;
8183;SDS011;4133;48.752;9.088;2022-08-19T10:27:28;10.73;;;9.57;;
8183;SDS011;4133;48.752;9.088;2022-08-19T10:29:55;14.73;;;10.35;;
8183;SDS011;4133;48.752;9.088;2022-08-19T10:32:22;14.02;;;10.13;;
8183;SDS011;4133;48.752;9.088;2022-08-19T10:34:50;15.05;;;9.50;;
8183;SDS011;4133;48.752;9.088;2022-08-19T10:37:17;12.80;;;9.50;;
8183;SDS011;4133;48.752;9.088;2022-08-19T10:39:43;13.15;;;9.40;;
8183;SDS011;4133;48.752;9.088;2022-08-19T10:42:12;12.35;;;9.00;;
8183;SDS011;4133;48.752;9.088;2022-08-19T10:44:39;10.30;;;8.73;;
8183;SDS011;4133;48.752;9.088;2022-08-19T10:47:05;8.95;;;8.10;;
8183;SDS011;4133;48.752;9.088;2022-08-19T10:49:31;10.52;;;8.73;;
8183;SDS011;4133;48.752;9.088;2022-08-19T10:52:17;8.88;;;7.97;;
8183;SDS011;4133;48.752;9.088;2022-08-19T10:54:59;10.90;;;7.57;;
8183;SDS011;4133;48.752;9.088;2022-08-19T10:57:44;10.98;;;7.68;;
8183;SDS011;4133;48.752;9.088;2022-08-19T11:00:10;9.13;;;8.02;;
8183;SDS011;4133;48.752;9.088;2022-08-19T11:02:36;9.30;;;8.25;;
8183;SDS011;4133;48.752;9.088;2022-08-19T11:05:03;10.50;;;7.45;;
8183;SDS011;4133;48.752;9.088;2022-08-19T11:07:29;11.02;;;8.15;;
8183;SDS011;4133;48.752;9.088;2022-08-19T11:09:55;10.38;;;7.90;;
8183;SDS011;4133;48.752;9.088;2022-08-19T11:12:21;9.63;;;7.90;;
8183;SDS011;4133;48.752;9.088;2022-08-19T11:14:47;8.98;;;7.03;;
8183;SDS011;4133;48.752;9.088;2022-08-19T11:17:14;11.15;;;7.35;;
8183;SDS011;4133;48.752;9.088;2022-08-19T11:19:40;8.82;;;7.82;;
8183;SDS011;4133;48.752;9.088;2022-08-19T11:22:10;12.85;;;8.10;;
8183;SDS011;4133;48.752;9.088;2022-08-19T11:24:36;9.55;;;7.72;;
8183;SDS011;4133;48.752;9.088;2022-08-19T11:27:04;7.88;;;7.03;;
8183;SDS011;4133;48.752;9.088;2022-08-19T11:29:31;7.93;;;6.65;;
8183;SDS011;4133;48.752;9.088;2022-08-19T11:31:59;7.88;;;7.07;;
8183;SDS011;4133;48.752;9.088;2022-08-19T11:34:26;9.52;;;7.00;;
8183;SDS011;4133;48.752;9.088;2022-08-19T11:36:53;9.18;;;7.25;;
8183;SDS011;4133;48.752;9.088;2022-08-19T11:39:22;7.93;;;7.10;;
8183;SDS011;4133;48.752;9.088;2022-08-19T11:41:50;8.73;;;6.95;;
8183;SDS011;4133;48.752;9.088;2022-08-19T11:44:16;7.20;;;6.50;;
8183;SDS011;4133;48.752;9.088;2022-08-19T11:46:42;7.38;;;6.47;;
8183;SDS011;4133;48.752;9.088;2022-08-19T11:49:11;7.63;;;6.50;;
8183;SDS011;4133;48.752;9.088;2022-08-19T11:51:37;8.80;;;6.57;;
8183;SDS011;4133;48.752;9.088;2022-08-19T11:54:04;9.25;;;6.40;;
8183;SDS011;4133;48.752;9.088;2022-08-19T11:56:30;8.30;;;6.45;;
8183;SDS011;4133;48.752;9.088;2022-08-19T11:58:57;7.40;;;6.57;;
8183;SDS011;4133;48.752;9.088;2022-08-19T12:01:24;10.45;;;6.57;;
8183;SDS011;4133;48.752;9.088;2022-08-19T12:03:51;7.45;;;6.75;;
8183;SDS011;4133;48.752;9.088;2022-08-19T12:06:19;7.78;;;6.50;;
8183;SDS011;4133;48.752;9.088;2022-08-19T12:08:48;9.48;;;6.57;;
8183;SDS011;4133;48.752;9.088;2022-08-19T12:11:14;6.93;;;6.07;;
8183;SDS011;4133;48.752;9.088;2022-08-19T12:13:40;8.63;;;6.40;;
8183;SDS011;4133;48.752;9.088;2022-08-19T12:16:11;6.75;;;6.15;;
8183;SDS011;4133;48.752;9.088;2022-08-19T12:18:38;7.22;;;6.53;;
8183;SDS011;4133;48.752;9.088;2022-08-19T12:21:07;9.18;;;6.72;;
8183;SDS011;4133;48.752;9.088;2022-08-19T12:23:35;7.65;;;6.32;;
8183;SDS011;4133;48.752;9.088;2022-08-19T12:26:02;7.07;;;5.63;;
8183;SDS011;4133;48.752;9.088;2022-08-19T12:28:28;7.80;;;6.18;;
8183;SDS011;4133;48.752;9.088;2022-08-19T12:30:55;7.28;;;6.10;;
8183;SDS011;4133;48.752;9.088;2022-08-19T12:33:21;9.68;;;6.18;;
8183;SDS011;4133;48.752;9.088;2022-08-19T12:35:50;6.50;;;5.70;;
8183;SDS011;4133;48.752;9.088;2022-08-19T12:38:16;10.52;;;6.30;;
8183;SDS011;4133;48.752;9.088;2022-08-19T12:40:45;8.98;;;5.63;;
8183;SDS011;4133;48.752;9.088;2022-08-19T12:43:11;6.40;;;5.10;;
8183;SDS011;4133;48.752;9.088;2022-08-19T12:45:38;5.50;;;5.03;;
8183;SDS011;4133;48.752;9.088;2022-08-19T12:48:05;7.38;;;5.20;;
8183;SDS011;4133;48.752;9.088;2022-08-19T12:50:31;4.53;;;4.13;;
8183;SDS011;4133;48.752;9.088;2022-08-19T12:52:57;5.18;;;4.53;;
8183;SDS011;4133;48.752;9.088;2022-08-19T12:55:23;5.28;;;4.60;;
8183;SDS011;4133;48.752;9.088;2022-08-19T12:57:49;8.27;;;4.78;;
8183;SDS011;4133;48.752;9.088;2022-08-19T13:00:17;5.30;;;4.07;;
8183;SDS011;4133;48.752;9.088;2022-08-19T13:02:44;5.57;;;4.50;;
8183;SDS011;4133;48.752;9.088;2022-08-19T13:05:11;5.35;;;4.82;;
8183;SDS011;4133;48.752;9.088;2022-08-19T13:07:39;6.25;;;5.20;;
8183;SDS011;4133;48.752;9.088;2022-08-19T13:10:06;7.22;;;5.20;;
8183;SDS011;4133;48.752;9.088;2022-08-19T13:12:32;4.93;;;4.43;;
8183;SDS011;4133;48.752;9.088;2022-08-19T13:14:58;5.15;;;4.65;;
8183;SDS011;4133;48.752;9.088;2022-08-19T13:17:24;5.40;;;4.90;;
8183;SDS011;4133;48.752;9.088;2022-08-19T13:19:50;7.05;;;5.40;;
8183;SDS011;4133;48.752;9.088;2022-08-19T13:22:16;6.05;;;4.80;;
8183;SDS011;4133;48.752;9.088;2022-08-19T13:24:42;8.25;;;5.15;;
8183;SDS011;4133;48.752;9.088;2022-08-19T13:27:08;5.25;;;4.80;;
8183;SDS011;4133;48.752;9.088;2022-08-19T13:29:34;5.70;;;5.05;;
8183;SDS011;4133;48.752;9.088;2022-08-19T13:32:19;8.20;;;5.20;;
8183;SDS011;4133;48.752;9.088;2022-08-19T13:35:03;6.78;;;4.85;;
8183;SDS011;4133;48.752;9.088;2022-08-19T13:37:30;5.38;;;4.88;;
8183;SDS011;4133;48.752;9.088;2022-08-19T13:40:12;6.00;;;4.90;;
8183;SDS011;4133;48.752;9.088;2022-08-19T13:42:40;5.85;;;5.15;;
8183;SDS011;4133;48.752;9.088;2022-08-19T13:45:07;10.68;;;9.57;;
8183;SDS011;4133;48.752;9.088;2022-08-19T13:47:34;10.90;;;9.73;;
8183;SDS011;4133;48.752;9.088;2022-08-19T13:50:02;14.05;;;9.80;;
8183;SDS011;4133;48.752;9.088;2022-08-19T13:52:28;11.20;;;10.02;;
8183;SDS011;4133;48.752;9.088;2022-08-19T13:54:54;12.32;;;11.07;;
8183;SDS011;4133;48.752;9.088;2022-08-19T13:57:21;12.50;;;11.23;;
8183;SDS011;4133;48.752;9.088;2022-08-19T13:59:47;16.35;;;11.98;;
8183;SDS011;4133;48.752;9.088;2022-08-19T14:02:13;14.82;;;11.85;;
8183;SDS011;4133;48.752;9.088;2022-08-19T14:04:39;13.15;;;11.38;;
8183;SDS011;4133;48.752;9.088;2022-08-19T14:07:05;16.23;;;12.73;;
8183;SDS011;4133;48.752;9.088;2022-08-19T14:09:31;15.18;;;11.75;;
8183;SDS011;4133;48.752;9.088;2022-08-19T14:11:57;13.82;;;12.40;;
8183;SDS011;4133;48.752;9.088;2022-08-19T14:14:23;14.80;;;12.38;;
8183;SDS011;4133;48.752;9.088;2022-08-19T14:16:49;13.63;;;11.07;;
8183;SDS011;4133;48.752;9.088;2022-08-19T14:19:16;15.10;;;10.98;;
8183;SDS011;4133;48.752;9.088;2022-08-19T14:21:42;15.18;;;12.55;;
8183;SDS011;4133;48.752;9.088;2022-08-19T14:24:08;14.68;;;11.73;;
8183;SDS011;4133;48.752;9.088;2022-08-19T14:26:34;13.35;;;11.93;;
8183;SDS011;4133;48.752;9.088;2022-08-19T14:29:00;14.70;;;11.65;;
8183;SDS011;4133;48.752;9.088;2022-08-19T14:31:26;15.63;;;11.35;;
8183;SDS011;4133;48.752;9.088;2022-08-19T14:33:53;13.13;;;11.38;;
8183;SDS011;4133;48.752;9.088;2022-08-19T14:36:19;13.50;;;12.10;;
8183;SDS011;4133;48.752;9.088;2022-08-19T14:38:47;13.68;;;12.27;;
8183;SDS011;4133;48.752;9.088;2022-08-19T14:41:20;12.60;;;11.23;;
8183;SDS011;4133;48.752;9.088;2022-08-19T14:43:47;14.23;;;11.50;;
8183;SDS011;4133;48.752;9.088;2022-08-19T14:46:16;12.98;;;11.68;;
8183;SDS011;4133;48.752;9.088;2022-08-19T14:48:44;12.93;;;11.63;;
8183;SDS011;4133;48.752;9.088;2022-08-19T14:51:11;12.55;;;11.35;;
8183;SDS011;4133;48.752;9.088;2022-08-19T14:53:38;13.25;;;11.82;;
8183;SDS011;4133;48.752;9.088;2022-08-19T14:56:10;12.15;;;10.88;;
8183;SDS011;4133;48.752;9.088;2022-08-19T14:58:37;11.40;;;10.30;;
8183;SDS011;4133;48.752;9.088;2022-08-19T15:01:05;13.68;;;10.82;;